sensor_id;sensor_type;location;lat;lon;timestamp;P1;durP1;ratioP1;P2;durP2;ratioP2
67816;SDS011;54614;47.576;7.524;2023-02-18T04:50:35;1.77;;;1.00;;
67816;SDS011;54614;47.576;7.524;2023-02-18T04:53:00;0.82;;;0.80;;
67816;SDS011;54614;47.576;7.524;2023-02-18T04:55:26;0.80;;;0.80;;
67816;SDS011;54614;47.576;7.524;2023-02-18T04:57:52;0.80;;;0.80;;
67816;SDS011;54614;47.576;7.524;2023-02-18T05:00:18;1.00;;;1.00;;
67816;SDS011;54614;47.576;7.524;2023-02-18T05:02:45;0.88;;;0.88;;
67816;SDS011;54614;47.576;7.524;2023-02-18T05:05:11;1.23;;;1.10;;
67816;SDS011;54614;47.576;7.524;2023-02-18T05:07:38;0.90;;;0.90;;
67816;SDS011;54614;47.576;7.524;2023-02-18T05:10:06;0.80;;;0.80;;
67816;SDS011;54614;47.576;7.524;2023-02-18T05:12:35;0.85;;;0.85;;
67816;SDS011;54614;47.576;7.524;2023-02-18T05:15:00;3.67;;;1.13;;
67816;SDS011;54614;47.576;7.524;2023-02-18T05:17:26;0.90;;;0.90;;
67816;SDS011;54614;47.576;7.524;2023-02-18T05:19:52;0.95;;;0.95;;
67816;SDS011;54614;47.576;7.524;2023-02-18T05:22:18;0.82;;;0.82;;
67816;SDS011;54614;47.576;7.524;2023-02-18T05:24:43;1.30;;;0.85;;
67816;SDS011;54614;47.576;7.524;2023-02-18T05:27:09;0.70;;;0.70;;
67816;SDS011;54614;47.576;7.524;2023-02-18T05:29:35;0.90;;;0.90;;
67816;SDS011;54614;47.576;7.524;2023-02-18T05:32:01;2.15;;;1.00;;
67816;SDS011;54614;47.576;7.524;2023-02-18T05:34:27;1.00;;;0.80;;
67816;SDS011;54614;47.576;7.524;2023-02-18T05:36:53;0.95;;;0.95;;
67816;SDS011;54614;47.576;7.524;2023-02-18T05:39:19;0.90;;;0.90;;
67816;SDS011;54614;47.576;7.524;2023-02-18T05:41:45;1.50;;;1.00;;
67816;SDS011;54614;47.576;7.524;2023-02-18T05:44:11;0.65;;;0.65;;
67816;SDS011;54614;47.576;7.524;2023-02-18T05:46:59;2.53;;;0.90;;
67816;SDS011;54614;47.576;7.524;2023-02-18T05:49:29;0.80;;;0.80;;
67816;SDS011;54614;47.576;7.524;2023-02-18T05:51:57;0.90;;;0.90;;
67816;SDS011;54614;47.576;7.524;2023-02-18T05:54:23;0.88;;;0.88;;
67816;SDS011;54614;47.576;7.524;2023-02-18T05:56:50;0.85;;;0.85;;
67816;SDS011;54614;47.576;7.524;2023-02-18T05:59:16;0.90;;;0.90;;
67816;SDS011;54614;47.576;7.524;2023-02-18T06:01:43;0.90;;;0.90;;
67816;SDS011;54614;47.576;7.524;2023-02-18T06:04:10;1.77;;;0.90;;
67816;SDS011;54614;47.576;7.524;2023-02-18T06:06:36;0.90;;;0.90;;
67816;SDS011;54614;47.576;7.524;2023-02-18T06:09:02;3.22;;;0.90;;
67816;SDS011;54614;47.576;7.524;2023-02-18T06:11:30;2.28;;;1.10;;
67816;SDS011;54614;47.576;7.524;2023-02-18T06:13:56;1.85;;;0.85;;
67816;SDS011;54614;47.576;7.524;2023-02-18T06:16:22;1.65;;;0.80;;
67816;SDS011;54614;47.576;7.524;2023-02-18T06:18:49;0.80;;;0.80;;
67816;SDS011;54614;47.576;7.524;2023-02-18T06:21:14;2.47;;;0.80;;
67816;SDS011;54614;47.576;7.524;2023-02-18T06:23:40;1.73;;;0.80;;
67816;SDS011;54614;47.576;7.524;2023-02-18T06:26:06;0.83;;;0.80;;
67816;SDS011;54614;47.576;7.524;2023-02-18T06:28:32;1.08;;;0.80;;
67816;SDS011;54614;47.576;7.524;2023-02-18T06:30:58;1.67;;;0.90;;
67816;SDS011;54614;47.576;7.524;2023-02-18T06:33:24;3.58;;;0.85;;
67816;SDS011;54614;47.576;7.524;2023-02-18T06:36:01;0.77;;;0.77;;
67816;SDS011;54614;47.576;7.524;2023-02-18T06:38:35;2.17;;;1.10;;
67816;SDS011;54614;47.576;7.524;2023-02-18T06:41:03;6.38;;;1.00;;
67816;SDS011;54614;47.576;7.524;2023-02-18T06:43:29;7.40;;;1.10;;
67816;SDS011;54614;47.576;7.524;2023-02-18T06:45:55;8.38;;;0.90;;
67816;SDS011;54614;47.576;7.524;2023-02-18T06:48:21;2.42;;;0.95;;
67816;SDS011;54614;47.576;7.524;2023-02-18T06:50:47;0.95;;;0.77;;
67816;SDS011;54614;47.576;7.524;2023-02-18T06:53:14;4.13;;;1.10;;
67816;SDS011;54614;47.576;7.524;2023-02-18T06:55:43;3.03;;;0.93;;
67816;SDS011;54614;47.576;7.524;2023-02-18T06:58:10;1.48;;;0.90;;
67816;SDS011;54614;47.576;7.524;2023-02-18T07:00:37;3.08;;;0.80;;
67816;SDS011;54614;47.576;7.524;2023-02-18T07:03:03;4.88;;;0.80;;
67816;SDS011;54614;47.576;7.524;2023-02-18T07:05:30;1.92;;;1.02;;
67816;SDS011;54614;47.576;7.524;2023-02-18T07:07:57;1.60;;;0.88;;
67816;SDS011;54614;47.576;7.524;2023-02-18T07:10:22;8.50;;;1.13;;
67816;SDS011;54614;47.576;7.524;2023-02-18T07:12:49;11.45;;;1.10;;
67816;SDS011;54614;47.576;7.524;2023-02-18T07:15:14;6.72;;;0.95;;
67816;SDS011;54614;47.576;7.524;2023-02-18T07:17:41;5.45;;;0.88;;
67816;SDS011;54614;47.576;7.524;2023-02-18T07:20:07;3.85;;;0.98;;
67816;SDS011;54614;47.576;7.524;2023-02-18T07:22:34;2.85;;;1.10;;
67816;SDS011;54614;47.576;7.524;2023-02-18T07:25:00;3.15;;;1.08;;
67816;SDS011;54614;47.576;7.524;2023-02-18T07:27:25;1.08;;;0.95;;
67816;SDS011;54614;47.576;7.524;2023-02-18T07:29:51;1.35;;;1.00;;
67816;SDS011;54614;47.576;7.524;2023-02-18T07:32:18;1.00;;;0.85;;
67816;SDS011;54614;47.576;7.524;2023-02-18T07:34:44;4.15;;;0.80;;
67816;SDS011;54614;47.576;7.524;2023-02-18T07:37:10;4.37;;;0.83;;
67816;SDS011;54614;47.576;7.524;2023-02-18T07:39:42;4.03;;;0.73;;
67816;SDS011;54614;47.576;7.524;2023-02-18T07:42:11;3.90;;;0.80;;
67816;SDS011;54614;47.576;7.524;2023-02-18T07:44:38;1.20;;;0.93;;
67816;SDS011;54614;47.576;7.524;2023-02-18T07:47:06;2.55;;;0.80;;
67816;SDS011;54614;47.576;7.524;2023-02-18T07:49:34;4.20;;;1.00;;
67816;SDS011;54614;47.576;7.524;2023-02-18T07:52:00;1.83;;;0.90;;
67816;SDS011;54614;47.576;7.524;2023-02-18T07:54:26;1.70;;;0.70;;
67816;SDS011;54614;47.576;7.524;2023-02-18T07:56:52;2.85;;;0.80;;
67816;SDS011;54614;47.576;7.524;2023-02-18T07:59:19;3.70;;;1.10;;
67816;SDS011;54614;47.576;7.524;2023-02-18T08:01:45;1.73;;;0.82;;
67816;SDS011;54614;47.576;7.524;2023-02-18T08:04:10;3.85;;;1.00;;
67816;SDS011;54614;47.576;7.524;2023-02-18T08:06:38;1.35;;;0.77;;
67816;SDS011;54614;47.576;7.524;2023-02-18T08:09:07;4.97;;;1.10;;
67816;SDS011;54614;47.576;7.524;2023-02-18T08:11:34;4.22;;;0.98;;
67816;SDS011;54614;47.576;7.524;2023-02-18T08:14:00;3.47;;;1.00;;
67816;SDS011;54614;47.576;7.524;2023-02-18T08:16:26;12.73;;;1.45;;
67816;SDS011;54614;47.576;7.524;2023-02-18T08:18:52;13.13;;;1.20;;
67816;SDS011;54614;47.576;7.524;2023-02-18T08:21:19;8.73;;;1.00;;
67816;SDS011;54614;47.576;7.524;2023-02-18T08:23:47;22.45;;;1.65;;
67816;SDS011;54614;47.576;7.524;2023-02-18T08:26:14;7.32;;;0.82;;
67816;SDS011;54614;47.576;7.524;2023-02-18T08:28:41;9.27;;;1.30;;
67816;SDS011;54614;47.576;7.524;2023-02-18T08:31:13;9.45;;;1.17;;
67816;SDS011;54614;47.576;7.524;2023-02-18T08:33:49;14.52;;;1.20;;
67816;SDS011;54614;47.576;7.524;2023-02-18T08:36:16;8.50;;;0.95;;
67816;SDS011;54614;47.576;7.524;2023-02-18T08:38:42;8.07;;;1.00;;
67816;SDS011;54614;47.576;7.524;2023-02-18T08:41:08;8.05;;;1.38;;
67816;SDS011;54614;47.576;7.524;2023-02-18T08:43:35;7.80;;;1.20;;
67816;SDS011;54614;47.576;7.524;2023-02-18T08:46:02;5.32;;;1.05;;
67816;SDS011;54614;47.576;7.524;2023-02-18T08:48:28;12.20;;;1.58;;
67816;SDS011;54614;47.576;7.524;2023-02-18T08:50:55;14.27;;;1.40;;
67816;SDS011;54614;47.576;7.524;2023-02-18T08:53:20;16.88;;;1.30;;
67816;SDS011;54614;47.576;7.524;2023-02-18T08:55:46;7.95;;;1.15;;
67816;SDS011;54614;47.576;7.524;2023-02-18T08:58:12;6.63;;;1.15;;
67816;SDS011;54614;47.576;7.524;2023-02-18T09:00:39;9.60;;;1.20;;
67816;SDS011;54614;47.576;7.524;2023-02-18T09:03:06;3.20;;;1.13;;
67816;SDS011;54614;47.576;7.524;2023-02-18T09:05:31;5.00;;;1.20;;
67816;SDS011;54614;47.576;7.524;2023-02-18T09:07:58;6.75;;;1.00;;
67816;SDS011;54614;47.576;7.524;2023-02-18T09:10:24;7.05;;;1.00;;
67816;SDS011;54614;47.576;7.524;2023-02-18T09:12:50;4.07;;;1.02;;
67816;SDS011;54614;47.576;7.524;2023-02-18T09:15:16;5.70;;;1.00;;
67816;SDS011;54614;47.576;7.524;2023-02-18T09:17:42;5.78;;;0.98;;
67816;SDS011;54614;47.576;7.524;2023-02-18T09:20:08;5.22;;;1.05;;
67816;SDS011;54614;47.576;7.524;2023-02-18T09:22:34;7.28;;;1.00;;
67816;SDS011;54614;47.576;7.524;2023-02-18T09:25:00;8.13;;;1.02;;
67816;SDS011;54614;47.576;7.524;2023-02-18T09:27:29;3.83;;;1.02;;
67816;SDS011;54614;47.576;7.524;2023-02-18T09:29:54;5.18;;;0.90;;
67816;SDS011;54614;47.576;7.524;2023-02-18T09:32:20;2.67;;;1.00;;
67816;SDS011;54614;47.576;7.524;2023-02-18T09:34:46;8.10;;;1.00;;
67816;SDS011;54614;47.576;7.524;2023-02-18T09:37:12;6.70;;;0.95;;
67816;SDS011;54614;47.576;7.524;2023-02-18T09:39:39;2.95;;;1.00;;
67816;SDS011;54614;47.576;7.524;2023-02-18T09:42:16;2.83;;;0.80;;
67816;SDS011;54614;47.576;7.524;2023-02-18T09:44:55;5.68;;;0.95;;
67816;SDS011;54614;47.576;7.524;2023-02-18T09:50:05;5.72;;;1.00;;
67816;SDS011;54614;47.576;7.524;2023-02-18T09:52:42;0.80;;;0.80;;
67816;SDS011;54614;47.576;7.524;2023-02-18T09:55:20;8.75;;;1.10;;
67816;SDS011;54614;47.576;7.524;2023-02-18T09:57:53;3.60;;;0.90;;
67816;SDS011;54614;47.576;7.524;2023-02-18T10:01:01;4.60;;;1.05;;
67816;SDS011;54614;47.576;7.524;2023-02-18T10:03:56;1.48;;;0.80;;
67816;SDS011;54614;47.576;7.524;2023-02-18T10:06:31;1.75;;;0.75;;
67816;SDS011;54614;47.576;7.524;2023-02-18T10:09:00;4.18;;;1.20;;
67816;SDS011;54614;47.576;7.524;2023-02-18T10:14:51;1.23;;;1.00;;
67816;SDS011;54614;47.576;7.524;2023-02-18T10:17:24;4.72;;;0.90;;
67816;SDS011;54614;47.576;7.524;2023-02-18T10:19:56;5.63;;;1.10;;
67816;SDS011;54614;47.576;7.524;2023-02-18T10:22:24;2.92;;;0.80;;
67816;SDS011;54614;47.576;7.524;2023-02-18T10:24:56;2.90;;;0.93;;
67816;SDS011;54614;47.576;7.524;2023-02-18T10:27:27;3.33;;;1.00;;
67816;SDS011;54614;47.576;7.524;2023-02-18T10:29:59;3.28;;;0.90;;
67816;SDS011;54614;47.576;7.524;2023-02-18T10:32:39;6.43;;;1.00;;
67816;SDS011;54614;47.576;7.524;2023-02-18T10:46:43;33.70;;;9.00;;
67816;SDS011;54614;47.576;7.524;2023-02-18T10:52:16;40.67;;;9.45;;
67816;SDS011;54614;47.576;7.524;2023-02-18T10:57:47;43.35;;;10.63;;
67816;SDS011;54614;47.576;7.524;2023-02-18T11:00:20;41.28;;;11.35;;
67816;SDS011;54614;47.576;7.524;2023-02-18T11:05:42;41.35;;;9.32;;
67816;SDS011;54614;47.576;7.524;2023-02-18T11:08:13;50.78;;;11.27;;
67816;SDS011;54614;47.576;7.524;2023-02-18T11:10:46;45.78;;;11.75;;
67816;SDS011;54614;47.576;7.524;2023-02-18T11:13:16;43.13;;;11.48;;
67816;SDS011;54614;47.576;7.524;2023-02-18T11:16:01;39.20;;;11.20;;
67816;SDS011;54614;47.576;7.524;2023-02-18T11:18:38;43.97;;;10.98;;
67816;SDS011;54614;47.576;7.524;2023-02-18T11:23:57;32.65;;;10.35;;
67816;SDS011;54614;47.576;7.524;2023-02-18T11:26:40;41.53;;;10.60;;
67816;SDS011;54614;47.576;7.524;2023-02-18T11:31:42;36.28;;;12.23;;
67816;SDS011;54614;47.576;7.524;2023-02-18T11:34:17;41.83;;;14.07;;
67816;SDS011;54614;47.576;7.524;2023-02-18T11:36:47;49.55;;;15.27;;
67816;SDS011;54614;47.576;7.524;2023-02-18T11:39:24;47.25;;;13.52;;
67816;SDS011;54614;47.576;7.524;2023-02-18T11:44:26;45.58;;;12.43;;
67816;SDS011;54614;47.576;7.524;2023-02-18T11:47:06;36.92;;;11.07;;
67816;SDS011;54614;47.576;7.524;2023-02-18T11:50:00;38.25;;;11.50;;
67816;SDS011;54614;47.576;7.524;2023-02-18T11:52:34;34.65;;;11.20;;
67816;SDS011;54614;47.576;7.524;2023-02-18T11:55:07;42.47;;;11.27;;
67816;SDS011;54614;47.576;7.524;2023-02-18T11:58:01;35.47;;;12.15;;
67816;SDS011;54614;47.576;7.524;2023-02-18T12:00:37;40.45;;;12.52;;
67816;SDS011;54614;47.576;7.524;2023-02-18T12:03:24;37.80;;;11.15;;
67816;SDS011;54614;47.576;7.524;2023-02-18T12:06:19;32.53;;;10.55;;
67816;SDS011;54614;47.576;7.524;2023-02-18T12:09:35;35.88;;;11.32;;
67816;SDS011;54614;47.576;7.524;2023-02-18T12:12:12;30.50;;;10.50;;
67816;SDS011;54614;47.576;7.524;2023-02-18T12:15:01;35.23;;;10.80;;
67816;SDS011;54614;47.576;7.524;2023-02-18T12:20:44;33.13;;;10.40;;
67816;SDS011;54614;47.576;7.524;2023-02-18T12:26:34;29.52;;;9.93;;
67816;SDS011;54614;47.576;7.524;2023-02-18T13:05:29;25.13;;;8.18;;
67816;SDS011;54614;47.576;7.524;2023-02-18T13:08:11;29.00;;;7.63;;
67816;SDS011;54614;47.576;7.524;2023-02-18T13:16:40;22.42;;;7.60;;
67816;SDS011;54614;47.576;7.524;2023-02-18T13:21:44;22.85;;;7.55;;
67816;SDS011;54614;47.576;7.524;2023-02-18T13:24:19;24.27;;;7.30;;
67816;SDS011;54614;47.576;7.524;2023-02-18T13:29:50;17.23;;;6.57;;
67816;SDS011;54614;47.576;7.524;2023-02-18T13:41:11;17.98;;;6.78;;
67816;SDS011;54614;47.576;7.524;2023-02-18T13:43:37;18.80;;;6.70;;
67816;SDS011;54614;47.576;7.524;2023-02-18T13:48:53;23.95;;;6.95;;
67816;SDS011;54614;47.576;7.524;2023-02-18T13:56:48;27.50;;;6.50;;
67816;SDS011;54614;47.576;7.524;2023-02-18T14:10:00;16.23;;;5.18;;
67816;SDS011;54614;47.576;7.524;2023-02-18T14:17:51;11.68;;;4.30;;
67816;SDS011;54614;47.576;7.524;2023-02-18T14:20:47;12.85;;;5.20;;
67816;SDS011;54614;47.576;7.524;2023-02-18T14:25:42;18.42;;;5.30;;
67816;SDS011;54614;47.576;7.524;2023-02-18T14:31:03;16.50;;;5.25;;
67816;SDS011;54614;47.576;7.524;2023-02-18T14:39:50;15.10;;;5.22;;
67816;SDS011;54614;47.576;7.524;2023-02-18T14:42:45;16.95;;;5.15;;
67816;SDS011;54614;47.576;7.524;2023-02-18T14:48:47;11.50;;;4.78;;
67816;SDS011;54614;47.576;7.524;2023-02-18T14:51:36;13.38;;;4.82;;
67816;SDS011;54614;47.576;7.524;2023-02-18T14:54:10;14.10;;;5.20;;
67816;SDS011;54614;47.576;7.524;2023-02-18T14:56:50;16.77;;;4.85;;
67816;SDS011;54614;47.576;7.524;2023-02-18T14:59:27;16.40;;;4.95;;
67816;SDS011;54614;47.576;7.524;2023-02-18T15:01:59;11.50;;;4.90;;
67816;SDS011;54614;47.576;7.524;2023-02-18T15:04:25;21.33;;;5.00;;
67816;SDS011;54614;47.576;7.524;2023-02-18T15:06:59;16.95;;;4.65;;
67816;SDS011;54614;47.576;7.524;2023-02-18T15:09:33;14.20;;;4.32;;
67816;SDS011;54614;47.576;7.524;2023-02-18T15:12:08;10.93;;;4.47;;
67816;SDS011;54614;47.576;7.524;2023-02-18T15:14:35;17.85;;;4.55;;
67816;SDS011;54614;47.576;7.524;2023-02-18T15:17:11;16.73;;;4.47;;
67816;SDS011;54614;47.576;7.524;2023-02-18T15:19:45;15.40;;;4.25;;
67816;SDS011;54614;47.576;7.524;2023-02-18T15:22:21;13.63;;;4.38;;
67816;SDS011;54614;47.576;7.524;2023-02-18T15:24:51;12.43;;;4.50;;
67816;SDS011;54614;47.576;7.524;2023-02-18T15:27:23;16.17;;;4.20;;
67816;SDS011;54614;47.576;7.524;2023-02-18T15:29:58;13.20;;;4.20;;
67816;SDS011;54614;47.576;7.524;2023-02-18T15:32:50;12.40;;;3.60;;
67816;SDS011;54614;47.576;7.524;2023-02-18T15:35:19;16.88;;;4.15;;
67816;SDS011;54614;47.576;7.524;2023-02-18T15:37:53;11.13;;;3.60;;
67816;SDS011;54614;47.576;7.524;2023-02-18T15:40:23;10.80;;;4.15;;
67816;SDS011;54614;47.576;7.524;2023-02-18T15:42:58;12.57;;;4.15;;
67816;SDS011;54614;47.576;7.524;2023-02-18T15:45:37;15.52;;;4.40;;
67816;SDS011;54614;47.576;7.524;2023-02-18T15:51:01;13.68;;;3.55;;
67816;SDS011;54614;47.576;7.524;2023-02-18T15:53:35;11.15;;;3.85;;
67816;SDS011;54614;47.576;7.524;2023-02-18T15:56:08;17.55;;;3.85;;
67816;SDS011;54614;47.576;7.524;2023-02-18T15:58:41;13.27;;;4.15;;
67816;SDS011;54614;47.576;7.524;2023-02-18T16:01:22;14.65;;;3.85;;
67816;SDS011;54614;47.576;7.524;2023-02-18T16:03:53;10.27;;;3.55;;
67816;SDS011;54614;47.576;7.524;2023-02-18T16:06:25;12.75;;;3.63;;
67816;SDS011;54614;47.576;7.524;2023-02-18T16:11:44;13.88;;;3.15;;
67816;SDS011;54614;47.576;7.524;2023-02-18T16:17:22;12.15;;;3.33;;
67816;SDS011;54614;47.576;7.524;2023-02-18T16:23:02;8.23;;;2.92;;
67816;SDS011;54614;47.576;7.524;2023-02-18T16:28:14;11.48;;;3.17;;
67816;SDS011;54614;47.576;7.524;2023-02-18T16:30:48;7.65;;;2.95;;
67816;SDS011;54614;47.576;7.524;2023-02-18T16:33:14;10.07;;;2.97;;
67816;SDS011;54614;47.576;7.524;2023-02-18T16:35:41;10.38;;;2.80;;
67816;SDS011;54614;47.576;7.524;2023-02-18T16:38:11;7.75;;;2.80;;
67816;SDS011;54614;47.576;7.524;2023-02-18T16:40:42;21.60;;;3.30;;
67816;SDS011;54614;47.576;7.524;2023-02-18T16:43:18;30.17;;;3.58;;
67816;SDS011;54614;47.576;7.524;2023-02-18T16:45:54;18.88;;;3.30;;
67816;SDS011;54614;47.576;7.524;2023-02-18T16:48:29;15.38;;;2.55;;
67816;SDS011;54614;47.576;7.524;2023-02-18T16:51:00;10.90;;;3.00;;
67816;SDS011;54614;47.576;7.524;2023-02-18T16:53:33;8.80;;;2.80;;
67816;SDS011;54614;47.576;7.524;2023-02-18T16:55:59;16.63;;;3.05;;
67816;SDS011;54614;47.576;7.524;2023-02-18T16:58:25;10.30;;;2.67;;
67816;SDS011;54614;47.576;7.524;2023-02-18T17:00:51;9.73;;;2.60;;
67816;SDS011;54614;47.576;7.524;2023-02-18T17:03:21;12.20;;;2.90;;
67816;SDS011;54614;47.576;7.524;2023-02-18T17:05:47;12.65;;;2.50;;
67816;SDS011;54614;47.576;7.524;2023-02-18T17:10:47;11.32;;;2.83;;
67816;SDS011;54614;47.576;7.524;2023-02-18T17:13:28;21.27;;;3.45;;
67816;SDS011;54614;47.576;7.524;2023-02-18T17:15:56;11.35;;;2.65;;
67816;SDS011;54614;47.576;7.524;2023-02-18T17:18:24;8.60;;;2.25;;
67816;SDS011;54614;47.576;7.524;2023-02-18T17:20:51;15.20;;;2.90;;
67816;SDS011;54614;47.576;7.524;2023-02-18T17:23:19;7.47;;;2.70;;
67816;SDS011;54614;47.576;7.524;2023-02-18T17:25:47;7.40;;;2.60;;
67816;SDS011;54614;47.576;7.524;2023-02-18T17:28:14;8.65;;;2.40;;
67816;SDS011;54614;47.576;7.524;2023-02-18T17:30:43;8.57;;;2.45;;
67816;SDS011;54614;47.576;7.524;2023-02-18T17:33:15;9.88;;;2.33;;
67816;SDS011;54614;47.576;7.524;2023-02-18T17:35:43;21.70;;;2.63;;
67816;SDS011;54614;47.576;7.524;2023-02-18T17:38:09;15.35;;;3.20;;
67816;SDS011;54614;47.576;7.524;2023-02-18T17:40:40;6.07;;;2.80;;
67816;SDS011;54614;47.576;7.524;2023-02-18T17:43:14;10.05;;;2.85;;
67816;SDS011;54614;47.576;7.524;2023-02-18T17:45:42;8.57;;;2.78;;
67816;SDS011;54614;47.576;7.524;2023-02-18T17:48:15;17.17;;;2.60;;
67816;SDS011;54614;47.576;7.524;2023-02-18T17:50:40;11.25;;;2.70;;
67816;SDS011;54614;47.576;7.524;2023-02-18T17:53:08;15.77;;;2.90;;
67816;SDS011;54614;47.576;7.524;2023-02-18T17:55:38;13.80;;;3.10;;
67816;SDS011;54614;47.576;7.524;2023-02-18T17:58:06;11.20;;;3.20;;
67816;SDS011;54614;47.576;7.524;2023-02-18T18:00:37;6.63;;;2.92;;
67816;SDS011;54614;47.576;7.524;2023-02-18T18:03:06;12.05;;;3.05;;
67816;SDS011;54614;47.576;7.524;2023-02-18T18:05:36;11.52;;;3.10;;
67816;SDS011;54614;47.576;7.524;2023-02-18T18:08:04;14.18;;;2.92;;
67816;SDS011;54614;47.576;7.524;2023-02-18T18:10:33;10.57;;;3.45;;
67816;SDS011;54614;47.576;7.524;2023-02-18T18:13:28;20.40;;;3.42;;
67816;SDS011;54614;47.576;7.524;2023-02-18T18:15:58;18.65;;;3.53;;
67816;SDS011;54614;47.576;7.524;2023-02-18T18:18:25;14.65;;;3.45;;
67816;SDS011;54614;47.576;7.524;2023-02-18T18:20:52;8.90;;;2.90;;
67816;SDS011;54614;47.576;7.524;2023-02-18T18:23:24;13.77;;;3.20;;
67816;SDS011;54614;47.576;7.524;2023-02-18T18:25:53;10.90;;;3.08;;
67816;SDS011;54614;47.576;7.524;2023-02-18T18:28:22;7.40;;;2.63;;
67816;SDS011;54614;47.576;7.524;2023-02-18T18:30:51;6.10;;;2.50;;
67816;SDS011;54614;47.576;7.524;2023-02-18T18:33:20;6.38;;;2.45;;
67816;SDS011;54614;47.576;7.524;2023-02-18T18:35:51;5.72;;;2.63;;
67816;SDS011;54614;47.576;7.524;2023-02-18T18:38:21;8.02;;;2.75;;
67816;SDS011;54614;47.576;7.524;2023-02-18T18:40:50;7.82;;;2.33;;
67816;SDS011;54614;47.576;7.524;2023-02-18T18:45:54;6.53;;;2.72;;
67816;SDS011;54614;47.576;7.524;2023-02-18T18:48:21;5.57;;;2.20;;
67816;SDS011;54614;47.576;7.524;2023-02-18T18:50:48;3.22;;;2.33;;
67816;SDS011;54614;47.576;7.524;2023-02-18T18:53:22;4.80;;;2.33;;
67816;SDS011;54614;47.576;7.524;2023-02-18T18:55:55;5.20;;;2.30;;
67816;SDS011;54614;47.576;7.524;2023-02-18T18:58:24;7.93;;;2.50;;
67816;SDS011;54614;47.576;7.524;2023-02-18T19:00:55;11.10;;;2.67;;
67816;SDS011;54614;47.576;7.524;2023-02-18T19:03:24;16.10;;;3.03;;
67816;SDS011;54614;47.576;7.524;2023-02-18T19:05:52;27.70;;;3.20;;
67816;SDS011;54614;47.576;7.524;2023-02-18T19:08:19;14.77;;;2.83;;
67816;SDS011;54614;47.576;7.524;2023-02-18T19:10:47;17.50;;;2.67;;
67816;SDS011;54614;47.576;7.524;2023-02-18T19:13:21;14.15;;;2.60;;
67816;SDS011;54614;47.576;7.524;2023-02-18T19:15:49;23.13;;;3.33;;
67816;SDS011;54614;47.576;7.524;2023-02-18T19:18:25;17.25;;;2.92;;
67816;SDS011;54614;47.576;7.524;2023-02-18T19:20:52;11.98;;;2.58;;
67816;SDS011;54614;47.576;7.524;2023-02-18T19:23:18;11.02;;;2.40;;
67816;SDS011;54614;47.576;7.524;2023-02-18T19:25:44;7.55;;;2.50;;
67816;SDS011;54614;47.576;7.524;2023-02-18T19:28:10;10.15;;;2.42;;
67816;SDS011;54614;47.576;7.524;2023-02-18T19:30:39;10.00;;;2.30;;
67816;SDS011;54614;47.576;7.524;2023-02-18T19:33:06;15.27;;;2.58;;
67816;SDS011;54614;47.576;7.524;2023-02-18T19:35:33;7.80;;;2.38;;
67816;SDS011;54614;47.576;7.524;2023-02-18T19:37:59;12.07;;;2.40;;
67816;SDS011;54614;47.576;7.524;2023-02-18T19:40:27;8.50;;;2.50;;
67816;SDS011;54614;47.576;7.524;2023-02-18T19:42:54;11.52;;;2.50;;
67816;SDS011;54614;47.576;7.524;2023-02-18T19:45:21;9.15;;;2.20;;
67816;SDS011;54614;47.576;7.524;2023-02-18T19:47:51;9.40;;;2.90;;
67816;SDS011;54614;47.576;7.524;2023-02-18T19:50:21;16.75;;;2.50;;
67816;SDS011;54614;47.576;7.524;2023-02-18T19:52:52;7.28;;;1.83;;
67816;SDS011;54614;47.576;7.524;2023-02-18T19:55:19;9.02;;;2.25;;
67816;SDS011;54614;47.576;7.524;2023-02-18T19:57:46;4.72;;;2.03;;
67816;SDS011;54614;47.576;7.524;2023-02-18T20:00:12;7.10;;;2.13;;
67816;SDS011;54614;47.576;7.524;2023-02-18T20:02:40;10.25;;;2.22;;
67816;SDS011;54614;47.576;7.524;2023-02-18T20:05:07;7.50;;;2.00;;
67816;SDS011;54614;47.576;7.524;2023-02-18T20:07:35;5.10;;;1.90;;
67816;SDS011;54614;47.576;7.524;2023-02-18T20:10:05;5.13;;;1.60;;
67816;SDS011;54614;47.576;7.524;2023-02-18T20:12:34;13.80;;;1.85;;
67816;SDS011;54614;47.576;7.524;2023-02-18T20:15:00;5.28;;;2.05;;
67816;SDS011;54614;47.576;7.524;2023-02-18T20:17:27;4.07;;;1.85;;
67816;SDS011;54614;47.576;7.524;2023-02-18T20:19:53;13.00;;;2.72;;
67816;SDS011;54614;47.576;7.524;2023-02-18T20:22:19;5.18;;;2.00;;
67816;SDS011;54614;47.576;7.524;2023-02-18T20:24:45;7.97;;;2.35;;
67816;SDS011;54614;47.576;7.524;2023-02-18T20:27:11;7.40;;;2.00;;
67816;SDS011;54614;47.576;7.524;2023-02-18T20:29:38;6.65;;;1.90;;
67816;SDS011;54614;47.576;7.524;2023-02-18T20:32:04;8.27;;;1.70;;
67816;SDS011;54614;47.576;7.524;2023-02-18T20:34:30;5.18;;;1.90;;
67816;SDS011;54614;47.576;7.524;2023-02-18T20:36:57;6.55;;;1.80;;
67816;SDS011;54614;47.576;7.524;2023-02-18T20:39:24;7.35;;;1.80;;
67816;SDS011;54614;47.576;7.524;2023-02-18T20:41:50;9.60;;;1.70;;
67816;SDS011;54614;47.576;7.524;2023-02-18T20:44:17;7.10;;;2.03;;
67816;SDS011;54614;47.576;7.524;2023-02-18T20:46:44;5.75;;;1.70;;
67816;SDS011;54614;47.576;7.524;2023-02-18T20:49:14;5.95;;;1.83;;
67816;SDS011;54614;47.576;7.524;2023-02-18T20:51:44;4.90;;;1.75;;
67816;SDS011;54614;47.576;7.524;2023-02-18T20:54:11;4.53;;;1.73;;
67816;SDS011;54614;47.576;7.524;2023-02-18T20:56:43;6.05;;;1.90;;
67816;SDS011;54614;47.576;7.524;2023-02-18T20:59:13;6.35;;;1.73;;
67816;SDS011;54614;47.576;7.524;2023-02-18T21:01:42;7.93;;;1.63;;
67816;SDS011;54614;47.576;7.524;2023-02-18T21:04:14;4.20;;;1.60;;
67816;SDS011;54614;47.576;7.524;2023-02-18T21:06:43;4.93;;;1.63;;
67816;SDS011;54614;47.576;7.524;2023-02-18T21:09:09;3.40;;;1.75;;
67816;SDS011;54614;47.576;7.524;2023-02-18T21:11:36;2.20;;;1.50;;
67816;SDS011;54614;47.576;7.524;2023-02-18T21:14:02;5.03;;;1.85;;
67816;SDS011;54614;47.576;7.524;2023-02-18T21:16:29;4.82;;;1.80;;
67816;SDS011;54614;47.576;7.524;2023-02-18T21:19:02;3.67;;;1.75;;
67816;SDS011;54614;47.576;7.524;2023-02-18T21:21:34;2.22;;;1.40;;
67816;SDS011;54614;47.576;7.524;2023-02-18T21:24:00;5.72;;;1.60;;
67816;SDS011;54614;47.576;7.524;2023-02-18T21:26:26;3.28;;;1.67;;
67816;SDS011;54614;47.576;7.524;2023-02-18T21:28:53;3.85;;;1.40;;
67816;SDS011;54614;47.576;7.524;2023-02-18T21:31:24;4.55;;;1.70;;
67816;SDS011;54614;47.576;7.524;2023-02-18T21:33:56;6.10;;;1.73;;
67816;SDS011;54614;47.576;7.524;2023-02-18T21:36:23;4.18;;;1.52;;
67816;SDS011;54614;47.576;7.524;2023-02-18T21:38:51;5.30;;;1.63;;
67816;SDS011;54614;47.576;7.524;2023-02-18T21:41:20;4.07;;;1.67;;
67816;SDS011;54614;47.576;7.524;2023-02-18T21:43:46;3.30;;;1.50;;
67816;SDS011;54614;47.576;7.524;2023-02-18T21:46:14;5.15;;;1.60;;
67816;SDS011;54614;47.576;7.524;2023-02-18T21:48:43;6.40;;;1.58;;
67816;SDS011;54614;47.576;7.524;2023-02-18T21:51:33;5.55;;;1.40;;
67816;SDS011;54614;47.576;7.524;2023-02-18T21:54:43;6.57;;;1.52;;
67816;SDS011;54614;47.576;7.524;2023-02-18T21:57:10;2.88;;;1.60;;
67816;SDS011;54614;47.576;7.524;2023-02-18T21:59:42;5.07;;;1.48;;
67816;SDS011;54614;47.576;7.524;2023-02-18T22:04:53;3.33;;;1.65;;
67816;SDS011;54614;47.576;7.524;2023-02-18T22:07:20;6.43;;;1.52;;
67816;SDS011;54614;47.576;7.524;2023-02-18T22:09:49;3.20;;;1.60;;
67816;SDS011;54614;47.576;7.524;2023-02-18T22:12:17;1.80;;;1.50;;
67816;SDS011;54614;47.576;7.524;2023-02-18T22:14:45;4.60;;;1.67;;
67816;SDS011;54614;47.576;7.524;2023-02-18T22:17:11;2.65;;;1.50;;
67816;SDS011;54614;47.576;7.524;2023-02-18T22:19:38;4.35;;;1.50;;
67816;SDS011;54614;47.576;7.524;2023-02-18T22:22:04;4.68;;;1.50;;
67816;SDS011;54614;47.576;7.524;2023-02-18T22:24:30;4.50;;;1.40;;
67816;SDS011;54614;47.576;7.524;2023-02-18T22:26:57;5.35;;;1.60;;